| Record Date MM/DD/YYYY | Record Julian Date NNN day of the year | Air Temperature Max (Degrees Fahrenheit F) | Time Max Air Temperature HH:MM:SS This is the time of max air temperature standard time. | Air Temperature Min (Degrees Fahrenheit F) | Time Min Air Temperature HH:MM:SS This is the time of min air temperature standard time. | Air Temperature Observed (Degrees Fahrenheit F) This is an instantaneous reading for air temperature at 7:00:00 standard time. | Relative Humidity Max (Percent) | Time Max Relative Humidity HH:MM:SS This is the time of max relative humidity standard time. | Relative Humidity Min (Percent) | Time Min Relative Humidity HH:MM:SS This is the time of min relative humidity standard time. | Relative Humidity Observed (Percent) This is an instantaneous reading at 7:00:00 standard time. | Precipitation (Inches n.nn) total rain fall that occurred for the day. | Pan Evaporation (Inches n.nn) total evaporation that occured for the day. | Wind Run (Miles) Wind travel for the day. | Wind Speed (Miles Per Hour) Resultant / Average speed for the day. | Wind Direction (Degrees) Resultant Direction for the day | Solar Radiation (Langley's) that occurred for the day. | Soil Temperature Max at 2 inch depth (Degrees Fahrenheit F) that occurred during the day. | Time Max Soil temperature at 2 inches HH:MM:SS This is the time of max 2 inch soil temperature standard time. | Soil Temperature Min at 2 inch depth (Degrees Fahrenheit F) that occurred during the day. | Time Min Soil temperature at 2 inches HH:MM:SS This is the time of min 2 inch soil temperature standard time. | Soil Temperature Observed at 2 inch depth (Degrees Fahrenheit F) This is an instantaneous reading 2 inch soil temperature at 7:00:00 standard time. | Soil Temperature Max at 4 inch depth (Degrees Fahrenheit F) that occurred during the day. | Time Max Soil temperature at 4 inches HH:MM:SS This is the time of max 4 inch soil temperature standard time. | Soil Temperature Min at 4 inch depth (Degrees Fahrenheit F) that occurred during the day. | Time Min Soil temperature at 4 inches HH:MM:SS This is the time of min 4 inch soil temperature standard time. | Soil Temperature Observed at 4 inch depth (Degrees Fahrenheit F) This is an instantaneous reading 4 inch soil temperature at 7:00:00 standard time. | DD50 Degree Days 50 Fahrenheit. | Adjusted DD50 Degree Days 50 Fahrenheit adjusted for latitude. | DD60 Degree Days 60 Fahrenheit. |
|---|---|---|---|---|---|---|---|---|---|---|---|---|---|---|---|---|---|---|---|---|---|---|---|---|---|---|---|---|---|---|
| 04/09/2026 | 99 | 83 | 15:20:00 | 58 | 5:36:00 | 62 | 71 | 22:55:05 | 35 | 15:20:03 | 63 | 0 | 112 | 4.7 | 140 | 551 | 77 | 15:06:00 | 61 | 6:48:05 | 61 | 73 | 16:11:00 | 62 | 7:17:02 | 62 | 20.5 | 21.14 | 10.5 | |
| 04/10/2026 | 100 | 85 | 14:11:00 | 58 | 4:19:03 | 63 | 84 | 4:17:01 | 34 | 14:11:01 | 73 | 0 | 62 | 2.6 | 134 | 557 | 81 | 15:12:05 | 63 | 6:36:01 | 63 | 77 | 16:08:05 | 64 | 7:19:01 | 64 | 21.5 | 22.17 | 11.5 | |
| 04/11/2026 | 101 | 87 | 15:29:01 | 60 | 5:37:01 | 66 | 91 | 5:43:00 | 34 | 15:24:00 | 82 | 0 | 64 | 2.7 | 149 | 473 | 80 | 15:42:05 | 66 | 6:24:05 | 66 | 77 | 16:39:05 | 67 | 7:11:02 | 67 | 23.5 | 24.21 | 13.5 | |
| 04/12/2026 | 102 | 86 | 14:26:04 | 62 | 4:31:03 | 67 | 86 | 4:32:00 | 34 | 14:59:05 | 78 | 0 | 158 | 6.6 | 175 | 517 | 79 | 15:02:03 | 67 | 6:36:01 | 67 | 76 | 16:07:00 | 68 | 7:14:05 | 68 | 24 | 24.74 | 14 | |
| 04/13/2026 | 103 | 85 | 15:05:04 | 69 | 4:47:03 | 71 | 86 | 6:49:03 | 50 | 16:21:01 | 85 | 0 | 143 | 6.0 | 181 | 363 | 79 | 16:17:04 | 70 | 6:29:04 | 70 | 76 | 16:47:04 | 70 | 7:11:01 | 70 | 27 | 26.78 | 17 | |
| 04/14/2026 | 104 | 88 | 15:09:02 | 67 | 5:54:00 | 70 | 91 | 6:12:05 | 40 | 14:42:03 | 88 | 0 | 144 | 6.0 | 189 | 479 | 81 | 15:31:05 | 70 | 6:19:04 | 70 | 78 | 16:44:02 | 70 | 7:27:00 | 70 | 27.5 | 26.81 | 17.5 | |
| 04/15/2026 | 105 | 88 | 14:42:01 | 67 | 5:16:03 | 70 | 85 | 5:52:04 | 37 | 13:16:05 | 80 | 0 | 150 | 6.2 | 189 | 554 | 83 | 14:59:05 | 70 | 6:44:05 | 70 | 80 | 15:57:00 | 71 | 7:38:00 | 71 | 27.5 | 26.84 | 17.5 | |
| 04/16/2026 | 106 | 89 | 13:57:02 | 68 | 5:22:00 | 71 | 88 | 5:32:04 | 39 | 13:58:03 | 85 | 0 | 116 | 4.8 | 190 | 444 | 83 | 14:24:01 | 72 | 6:11:05 | 72 | 80 | 14:56:05 | 72 | 7:49:02 | 72 | 28.5 | 26.88 | 18.5 | |
| 04/17/2026 | 107 | 90 | 14:21:05 | 70 | 4:17:00 | 72 | 90 | 5:51:05 | 43 | 14:51:03 | 86 | 0 | 143 | 6.0 | 190 | 508 | 84 | 15:02:05 | 72 | 6:03:03 | 72 | 81 | 15:51:04 | 73 | 7:04:02 | 73 | 30 | 26.91 | 20 | |
| 04/18/2026 | 108 | 82 | 10:54:01 | 52 | 22:11:05 | 71 | 98 | 12:52:02 | 60 | 11:08:04 | 84 | 0.37 | 153 | 6.4 | 259 | 220 | 77 | 11:24:03 | 67 | 23:58:04 | 73 | 76 | 0:00:01 | 69 | 23:58:02 | 73 | 17 | 17.94 | 7 | |
| 04/19/2026 | 109 | 73 | 15:25:02 | 49 | 5:34:05 | 52 | 99 | 3:59:02 | 31 | 17:16:03 | 94 | 0 | 41 | 1.7 | 32 | 557 | 78 | 15:20:03 | 63 | 6:24:03 | 63 | 75 | 16:27:01 | 65 | 7:27:05 | 65 | 11 | 11.98 | 1 | |
| 04/20/2026 | 110 | 79 | 16:03:01 | 46 | 5:51:05 | 55 | 100 | 2:53:01 | 27 | 13:48:04 | 98 | 0 | 38 | 1.6 | 142 | 580 | 78 | 15:44:01 | 61 | 6:22:01 | 61 | 75 | 16:33:03 | 63 | 7:21:00 | 63 | 12.5 | 13.51 | 2.5 | |
| 04/21/2026 | 111 | 82 | 14:34:03 | 49 | 4:48:04 | 60 | 100 | 5:28:02 | 22 | 12:36:03 | 72 | 0 | 79 | 3.3 | 167 | 497 | 76 | 15:42:00 | 62 | 6:13:00 | 63 | 74 | 16:32:02 | 64 | 6:59:00 | 64 | 15.5 | 16.54 | 5.5 | |
| 04/22/2026 | 112 | 84 | 14:21:05 | 60 | 5:21:01 | 66 | 86 | 6:45:03 | 26 | 11:35:05 | 75 | 0 | 96 | 4.0 | 152 | 562 | 81 | 15:33:05 | 66 | 5:49:05 | 66 | 78 | 16:17:04 | 67 | 7:00:04 | 67 | 22 | 23.07 | 12 | |
| 04/23/2026 | 113 | 87 | 14:51:01 | 66 | 4:19:01 | 69 | 90 | 5:59:00 | 33 | 15:24:01 | 87 | 0 | 145 | 6.0 | 167 | 534 | 82 | 15:14:02 | 69 | 5:46:03 | 69 | 79 | 16:08:00 | 70 | 6:50:05 | 70 | 26.5 | 27.11 | 16.5 | |
| 04/24/2026 | 114 | 84 | 11:30:01 | 62 | 13:53:03 | 69 | 100 | 22:37:02 | 57 | 11:30:02 | 89 | 2.57 | 115 | 4.8 | 164 | 256 | 78 | 12:07:00 | 68 | 23:51:05 | 71 | 76 | 13:22:00 | 69 | 23:57:02 | 71 | 23 | 24.14 | 13 | |
| 04/25/2026 | 115 | 83 | 17:10:03 | 63 | 5:30:00 | 65 | 100 | 0:00:00 | 61 | 17:28:04 | 100 | 0.37 | 54 | 2.2 | 214 | 500 | 84 | 15:49:01 | 66 | 6:15:00 | 66 | 81 | 17:00:05 | 67 | 6:58:05 | 67 | 23 | 24.17 | 13 | |
| 04/26/2026 | 116 | 87 | 15:00:01 | 66 | 6:17:05 | 68 | 99 | 5:24:04 | 48 | 12:20:03 | 88 | 0.12 | 73 | 3.1 | 160 | 525 | 86 | 15:28:02 | 72 | 6:51:01 | 72 | 82 | 16:31:04 | 72 | 8:09:02 | 72 | 26.5 | 27.2 | 16.5 | |
| 04/27/2026 | 117 | 87 | 14:10:02 | 72 | 5:14:05 | 73 | 97 | 5:17:02 | 69 | 14:10:02 | 93 | 0 | 154 | 6.4 | 181 | 366 | 82 | 14:21:04 | 74 | 6:36:00 | 74 | 80 | 15:07:03 | 74 | 7:55:04 | 74 | 29.5 | 27.23 | 19.5 | |
| 04/28/2026 | 118 | 83 | 12:35:01 | 66 | 21:43:01 | 75 | 100 | 21:41:05 | 73 | 21:57:05 | 90 | 0.51 | 142 | 5.9 | 189 | 171 | 79 | 13:08:02 | 72 | 23:57:02 | 73 | 77 | 14:08:03 | 73 | 23:56:04 | 74 | 24.5 | 25.76 | 14.5 | |
| 04/29/2026 | 119 | 75 | 8:21:01 | 65 | 23:59:03 | 74 | 96 | 5:19:01 | 79 | 14:54:01 | 95 | 0 | 91 | 3.8 | 332 | 190 | 76 | 14:14:02 | 71 | 23:58:03 | 72 | 75 | 15:56:02 | 71 | 23:57:02 | 72 | 20 | 21.29 | 10 | |
| 04/30/2026 | 120 | 71 | 12:11:00 | 60 | 23:43:05 | 60 | 98 | 2:15:00 | 55 | 12:42:00 | 81 | 0.05 | 52 | 2.2 | 44 | 351 | 76 | 13:55:00 | 68 | 7:20:03 | 68 | 74 | 15:23:03 | 69 | 8:06:00 | 69 | 15.5 | 16.82 | 5.5 | |
| 05/01/2026 | 121 | 64 | 15:04:01 | 57 | 5:44:02 | 58 | 94 | 20:25:04 | 59 | 15:26:04 | 82 | 0 | 29 | 1.2 | 41 | 156 | 69 | 16:09:04 | 66 | 23:56:05 | 66 | 70 | 0:00:01 | 67 | 23:55:02 | 67 | 10.5 | 11.85 | 0.5 | |
| 05/02/2026 | 122 | 74 | 15:25:02 | 54 | 4:58:03 | 58 | 95 | 23:59:05 | 30 | 16:22:05 | 74 | 0 | 81 | 3.4 | 1 | 617 | 76 | 14:43:03 | 63 | 6:47:05 | 63 | 74 | 15:48:00 | 64 | 7:09:04 | 65 | 14 | 15.38 | 4 | |
| 05/03/2026 | 123 | 78 | 15:42:05 | 50 | 2:41:00 | 58 | 98 | 2:03:05 | 31 | 16:12:01 | 62 | 0 | 89 | 3.7 | 167 | 643 | 79 | 15:08:01 | 62 | 6:45:02 | 62 | 75 | 16:18:03 | 63 | 7:19:00 | 63 | 14 | 15.41 | 4 | |
| 05/04/2026 | 124 | 81 | 13:48:02 | 58 | 5:26:05 | 65 | 88 | 5:27:02 | 37 | 11:43:05 | 71 | 0 | 159 | 6.6 | 208 | 616 | 78 | 14:42:02 | 65 | 6:27:01 | 65 | 75 | 16:19:02 | 66 | 7:14:01 | 66 | 19.5 | 20.94 | 9.5 | |
| 05/05/2026 | 125 | 79 | 16:23:05 | 63 | 4:09:03 | 66 | 84 | 23:57:01 | 69 | 16:26:05 | 75 | 0 | 172 | 7.2 | 187 | 224 | 72 | 16:52:01 | 66 | 6:00:03 | 66 | 71 | 17:33:01 | 67 | 6:38:00 | 67 | 21 | 22.47 | 11 | |
| 05/06/2026 | 126 | 77 | 8:09:04 | 57 | 23:46:04 | 75 | 96 | 10:00:00 | 83 | 0:00:00 | 88 | 0 | 136 | 5.7 | 324 | 180 | 71 | 8:42:01 | 66 | 23:59:00 | 70 | 71 | 13:34:01 | 67 | 23:57:03 | 70 | 17 | 18.5 | 7 | |
| 05/07/2026 | 127 | 74 | 15:45:03 | 56 | 3:22:04 | 59 | 98 | 3:34:05 | 45 | 16:11:00 | 84 | 0.02 | 65 | 2.7 | 22 | 553 | 76 | 15:54:02 | 64 | 6:39:05 | 64 | 74 | 16:45:04 | 65 | 6:59:02 | 65 | 15 | 16.52 | 5 | |
| 05/08/2026 | 128 | 73 | 12:56:02 | 53 | 4:57:05 | 62 | 98 | 23:59:02 | 52 | 11:49:03 | 78 | 0.14 | 89 | 3.7 | 130 | 359 | 73 | 13:58:05 | 64 | 5:58:02 | 65 | 71 | 14:57:02 | 66 | 6:49:00 | 66 | 13 | 14.55 | 3 | |
| Average | 81.27 | 60.1 | 65.67 | 92.87 | 46.43 | 82.67 | 0.14 | 104.83 | 436.77 | 78.47 | 66.87 | 67.43 | 76.03 | 67.83 | 68.23 | 20.68 | 21.3 | 10.68 | ||||||||||||
| Total | 4.15 | 620.5 | 638.86 | 320.5 |